createdAt,value
2022-10-04T00:02:04.239Z,101099.84
2022-10-04T00:04:47.528Z,101093.59
2022-10-04T00:07:14.345Z,101086.34
2022-10-04T00:10:15.914Z,101091.94
2022-10-04T00:12:55.858Z,101083.91
2022-10-04T00:15:32.249Z,101086.38
2022-10-04T00:18:02.036Z,101087.81
2022-10-04T00:20:56.180Z,101078.06
2022-10-04T00:23:38.275Z,101071.78
2022-10-04T00:26:12.435Z,101076.75
2022-10-04T00:28:40.078Z,101083.19
2022-10-04T00:31:20.519Z,101082.88
2022-10-04T00:34:09.051Z,101078.94
2022-10-04T00:37:01.406Z,101087.00
2022-10-04T00:39:34.155Z,101088.75
2022-10-04T00:42:40.364Z,101087.44
2022-10-04T00:45:36.519Z,101088.66
2022-10-04T00:48:11.617Z,101083.41
2022-10-04T00:50:59.443Z,101087.00
2022-10-04T00:53:52.695Z,101078.31
2022-10-04T00:56:57.743Z,101070.34
2022-10-04T00:59:49.798Z,101068.59
2022-10-04T01:02:34.314Z,101067.97
2022-10-04T01:05:10.687Z,101067.97
2022-10-04T01:07:47.250Z,101065.47
2022-10-04T01:10:22.543Z,101060.72
2022-10-04T01:13:40.650Z,101062.78
2022-10-04T01:16:24.958Z,101064.72
2022-10-04T01:18:52.342Z,101060.31
2022-10-04T01:21:21.846Z,101065.78
2022-10-04T01:23:55.663Z,101058.47
2022-10-04T01:26:34.563Z,101052.84
2022-10-04T01:29:18.182Z,101052.97
2022-10-04T01:31:54.550Z,101046.84
2022-10-04T01:34:25.241Z,101043.31
2022-10-04T01:36:59.934Z,101045.41
2022-10-04T01:39:28.496Z,101029.44
2022-10-04T01:42:14.494Z,101021.06
2022-10-04T01:45:25.748Z,101019.06
2022-10-04T01:48:00.538Z,101009.09
2022-10-04T01:50:40.192Z,101000.81
2022-10-04T01:53:24.455Z,101011.44
2022-10-04T01:55:55.599Z,101013.72
2022-10-04T01:58:39.663Z,101004.16
2022-10-04T02:01:23.562Z,101007.59
2022-10-04T02:04:09.285Z,101006.97
2022-10-04T02:06:40.713Z,101009.66
2022-10-04T02:09:15.822Z,101007.19
2022-10-04T02:11:44.964Z,101011.06
2022-10-04T02:14:19.847Z,101008.97
2022-10-04T02:16:52.231Z,101013.09
2022-10-04T02:19:32.946Z,101015.50
2022-10-04T02:22:05.446Z,101013.94
2022-10-04T02:24:41.192Z,101006.50
2022-10-04T02:27:08.191Z,101012.88
2022-10-04T02:29:35.228Z,101013.09
2022-10-04T02:32:23.990Z,101008.88
2022-10-04T02:34:51.794Z,101002.84
2022-10-04T02:37:20.076Z,101001.59
2022-10-04T02:40:05.362Z,100987.94
2022-10-04T02:42:50.390Z,100984.31
2022-10-04T02:45:25.004Z,100990.09
2022-10-04T02:48:01.319Z,100991.16
2022-10-04T02:50:35.652Z,100988.97
2022-10-04T02:53:18.852Z,100993.31
2022-10-04T02:55:46.484Z,100989.69
2022-10-04T02:58:18.401Z,100987.81
2022-10-04T03:00:50.417Z,100986.06
2022-10-04T03:03:30.317Z,100982.03
2022-10-04T03:06:11.469Z,100982.03
2022-10-04T03:09:03.676Z,100971.91
2022-10-04T03:11:36.307Z,100966.03
2022-10-04T03:14:10.221Z,100965.97
2022-10-04T03:16:45.151Z,100970.75
2022-10-04T03:19:16.087Z,100975.56
2022-10-04T03:21:46.737Z,100971.97
2022-10-04T03:24:24.017Z,100966.25
2022-10-04T03:26:55.882Z,100964.13
2022-10-04T03:29:26.523Z,100967.00
2022-10-04T03:31:58.229Z,100966.41
2022-10-04T03:34:40.267Z,100966.13
2022-10-04T03:37:13.454Z,100965.91
2022-10-04T03:39:50.195Z,100966.13
2022-10-04T03:42:25.590Z,100969.44
2022-10-04T03:44:56.361Z,100963.22
2022-10-04T03:47:36.493Z,100966.53
2022-10-04T03:50:16.576Z,100961.91
2022-10-04T03:52:55.787Z,100977.00
2022-10-04T03:55:32.187Z,100969.34
2022-10-04T03:58:00.360Z,100972.03
2022-10-04T04:00:28.766Z,100975.00
2022-10-04T04:03:04.791Z,100973.44
2022-10-04T04:05:40.716Z,100973.94
2022-10-04T04:08:19.366Z,100979.13
2022-10-04T04:10:51.635Z,100978.53
2022-10-04T04:13:56.941Z,100984.84
2022-10-04T04:16:28.365Z,100986.63
2022-10-04T04:19:05.667Z,100989.72
2022-10-04T04:21:33.193Z,100983.69
2022-10-04T04:24:05.584Z,100978.53
2022-10-04T04:26:45.966Z,100977.06
2022-10-04T04:29:46.075Z,100977.91
2022-10-04T04:32:17.152Z,100986.19
2022-10-04T04:35:10.173Z,100979.25
2022-10-04T04:37:38.684Z,100986.50
2022-10-04T04:40:21.813Z,100995.44
2022-10-04T04:42:50.183Z,100994.16
2022-10-04T04:45:25.761Z,100989.53
2022-10-04T04:47:57.267Z,100983.72
2022-10-04T04:50:32.171Z,100995.72
2022-10-04T04:53:05.629Z,100985.28
2022-10-04T04:56:02.701Z,100981.34
2022-10-04T04:58:44.217Z,100986.94
2022-10-04T05:01:26.039Z,100991.38
2022-10-04T05:04:17.257Z,100989.72
2022-10-04T05:07:02.284Z,100990.25
2022-10-04T05:09:41.060Z,100997.19
2022-10-04T05:12:21.313Z,100990.34
2022-10-04T05:14:52.334Z,100987.06
2022-10-04T05:17:27.900Z,100991.56
2022-10-04T05:19:59.438Z,100993.03
2022-10-04T05:22:27.571Z,101007.09
2022-10-04T05:25:02.832Z,101006.25
2022-10-04T05:27:36.608Z,101022.22
2022-10-04T05:30:28.856Z,101018.34
2022-10-04T05:33:06.714Z,101017.03
2022-10-04T05:36:06.779Z,101017.97
2022-10-04T05:38:45.289Z,101013.41
2022-10-04T05:41:32.700Z,101009.91
2022-10-04T05:44:02.424Z,101009.41
2022-10-04T05:46:35.422Z,101007.53
2022-10-04T05:49:18.954Z,101005.88
2022-10-04T05:52:14.314Z,100994.25
2022-10-04T05:54:41.529Z,100997.53
2022-10-04T05:57:35.778Z,100989.75
2022-10-04T06:00:22.060Z,100979.47
2022-10-04T06:03:31.245Z,100975.16
2022-10-04T06:06:16.588Z,100969.09
2022-10-04T06:09:31.473Z,100964.53
2022-10-04T06:12:12.413Z,100967.50
2022-10-04T06:14:48.606Z,100972.06
2022-10-04T06:17:37.105Z,100983.84
2022-10-04T06:20:47.212Z,100988.00
2022-10-04T06:23:18.459Z,100981.97
2022-10-04T06:25:56.323Z,100981.84
2022-10-04T06:28:48.822Z,100984.94
2022-10-04T06:32:01.751Z,100985.19
2022-10-04T06:34:37.358Z,100990.47
2022-10-04T06:37:44.046Z,100998.56
2022-10-04T06:40:42.658Z,100998.97
2022-10-04T06:43:50.718Z,101009.44
2022-10-04T06:46:47.526Z,101010.81
2022-10-04T06:50:20.131Z,101016.78
2022-10-04T06:53:02.536Z,101024.19
2022-10-04T06:55:54.267Z,101020.66
2022-10-04T06:58:45.186Z,101024.41
2022-10-04T07:01:14.798Z,101022.22
2022-10-04T07:03:53.305Z,101025.41
2022-10-04T07:07:25.078Z,101026.75
2022-10-04T07:10:01.464Z,101023.47
2022-10-04T07:12:29.828Z,101013.19
2022-10-04T07:15:01.503Z,101011.22
2022-10-04T07:17:37.932Z,101009.56
2022-10-04T07:20:07.063Z,101011.97
2022-10-04T07:22:56.272Z,101020.69
2022-10-04T07:25:44.860Z,101026.38
2022-10-04T07:28:36.994Z,101029.56
2022-10-04T07:31:26.369Z,101036.53
2022-10-04T07:34:00.965Z,101030.75
2022-10-04T07:36:45.844Z,101024.72
2022-10-04T07:39:46.132Z,101032.75
2022-10-04T07:42:23.657Z,101033.72
2022-10-04T07:45:21.822Z,101024.97
2022-10-04T07:47:49.142Z,101021.19
2022-10-04T07:50:32.185Z,101018.69
2022-10-04T07:53:09.789Z,101016.66
2022-10-04T07:56:01.609Z,101016.88
2022-10-04T07:58:57.878Z,101021.59
2022-10-04T08:02:07.968Z,101016.25
2022-10-04T08:05:20.062Z,101021.59
2022-10-04T08:08:11.382Z,101032.09
2022-10-04T08:11:07.346Z,101021.81
2022-10-04T08:13:52.768Z,101021.13
2022-10-04T08:16:31.163Z,101030.06
2022-10-04T08:19:36.016Z,101029.91
2022-10-04T08:22:33.710Z,101039.31
2022-10-04T08:25:00.673Z,101030.03
2022-10-04T08:28:14.098Z,101028.59
2022-10-04T08:31:09.275Z,101028.88
2022-10-04T08:33:51.140Z,101031.56
2022-10-04T08:37:03.171Z,101029.91
2022-10-04T08:39:47.678Z,101029.69
2022-10-04T08:42:59.467Z,101013.81
2022-10-04T08:46:04.059Z,101018.81
2022-10-04T08:48:56.103Z,101011.47
2022-10-04T08:51:56.331Z,101003.66
2022-10-04T08:54:45.326Z,101025.75
2022-10-04T08:57:16.515Z,101022.03
2022-10-04T09:00:17.034Z,101006.84
2022-10-04T09:03:02.799Z,101007.31
2022-10-04T09:06:33.631Z,101004.94
2022-10-04T09:09:44.730Z,101003.03
2022-10-04T09:12:53.189Z,101005.09
2022-10-04T09:15:37.143Z,101006.75
2022-10-04T09:18:13.183Z,101008.66
2022-10-04T09:20:45.704Z,101018.25
2022-10-04T09:23:22.684Z,101018.41
2022-10-04T09:26:11.424Z,101029.63
2022-10-04T09:29:04.897Z,101024.47
2022-10-04T09:32:21.400Z,101008.38
2022-10-04T09:35:16.956Z,100997.25
2022-10-04T09:37:56.026Z,100995.59
2022-10-04T09:40:58.548Z,100985.34
2022-10-04T09:44:13.082Z,100986.56
2022-10-04T09:47:46.464Z,100969.25
2022-10-04T09:50:40.043Z,100981.06
2022-10-04T09:53:47.483Z,100990.63
2022-10-04T09:56:44.940Z,100980.19
2022-10-04T09:59:27.078Z,100988.78
2022-10-04T10:02:29.150Z,100993.28
2022-10-04T10:05:26.450Z,100993.56
2022-10-04T10:08:23.860Z,100992.06
2022-10-04T10:11:43.901Z,100997.84
2022-10-04T10:15:09.234Z,100990.31
2022-10-04T10:18:15.157Z,100987.66
2022-10-04T10:21:11.455Z,100978.63
2022-10-04T10:23:56.780Z,100982.28
2022-10-04T10:27:08.762Z,100987.50
2022-10-04T10:30:03.707Z,101001.28
2022-10-04T10:32:58.396Z,100982.97
2022-10-04T10:35:49.095Z,100969.69
2022-10-04T10:38:50.142Z,100961.66
2022-10-04T10:42:14.583Z,100960.88
2022-10-04T10:45:45.923Z,100946.41
2022-10-04T10:48:27.603Z,100938.88
2022-10-04T10:51:34.452Z,100942.63
2022-10-04T10:54:59.757Z,100954.09
2022-10-04T10:57:59.769Z,100954.88
2022-10-04T11:00:57.633Z,100958.88
2022-10-04T11:04:09.703Z,100943.81
2022-10-04T11:06:57.697Z,100944.13
2022-10-04T11:09:50.487Z,100949.69
2022-10-04T11:12:41.351Z,100940.19
2022-10-04T11:15:52.139Z,100943.44
2022-10-04T11:18:46.945Z,100931.81
2022-10-04T11:22:21.987Z,100928.31
2022-10-04T11:25:07.723Z,100925.41
2022-10-04T11:27:58.866Z,100934.94
2022-10-04T11:31:01.291Z,100920.63
2022-10-04T11:34:18.466Z,100920.72
2022-10-04T11:36:57.034Z,100926.03
2022-10-04T11:39:51.104Z,100931.25
2022-10-04T11:42:43.830Z,100927.84
2022-10-04T11:45:33.440Z,100928.91
2022-10-04T11:48:33.017Z,100923.88
2022-10-04T11:52:02.107Z,100925.00
2022-10-04T11:54:49.637Z,100918.56
2022-10-04T11:57:52.513Z,100922.50
2022-10-04T12:00:22.543Z,100917.84
2022-10-04T12:03:28.116Z,100911.97
2022-10-04T12:06:37.246Z,100915.94
2022-10-04T12:09:18.102Z,100910.56
2022-10-04T12:12:37.101Z,100908.09
2022-10-04T12:15:33.037Z,100919.84
2022-10-04T12:18:26.406Z,100913.94
2022-10-04T12:21:28.917Z,100920.16
2022-10-04T12:24:33.158Z,100907.38
2022-10-04T12:27:30.926Z,100903.91
2022-10-04T12:30:39.251Z,100903.16
2022-10-04T12:33:37.692Z,100920.66
2022-10-04T12:36:13.584Z,100914.06
2022-10-04T12:38:59.106Z,100902.00
2022-10-04T12:42:22.987Z,100895.50
2022-10-04T12:45:14.962Z,100901.66
2022-10-04T12:48:21.789Z,100899.91
2022-10-04T12:51:27.509Z,100892.66
2022-10-04T12:54:27.732Z,100891.81
2022-10-04T12:57:21.850Z,100878.47
2022-10-04T13:00:18.403Z,100863.19
2022-10-04T13:03:22.099Z,100857.06
2022-10-04T13:06:45.852Z,100877.97
2022-10-04T13:09:42.555Z,100868.13
2022-10-04T13:12:12.178Z,100844.94
2022-10-04T13:15:04.342Z,100847.47
2022-10-04T13:18:13.973Z,100837.19
2022-10-04T13:21:05.123Z,100840.16
2022-10-04T13:24:04.331Z,100831.81
2022-10-04T13:27:05.317Z,100829.31
2022-10-04T13:29:53.012Z,100831.00
2022-10-04T13:32:30.013Z,100827.13
2022-10-04T13:35:26.037Z,100823.41
2022-10-04T13:38:28.016Z,100828.78
2022-10-04T13:41:20.680Z,100828.97
2022-10-04T13:44:31.251Z,100819.78
2022-10-04T13:47:40.231Z,100818.25
2022-10-04T13:50:38.293Z,100819.41
2022-10-04T13:53:54.278Z,100827.63
2022-10-04T13:57:01.262Z,100823.94
2022-10-04T14:00:06.670Z,100818.22
2022-10-04T14:03:13.750Z,100823.38
2022-10-04T14:06:15.970Z,100805.75
2022-10-04T14:09:27.415Z,100800.81
2022-10-04T14:12:34.502Z,100805.00
2022-10-04T14:15:19.606Z,100800.63
2022-10-04T14:18:21.302Z,100800.53
2022-10-04T14:21:27.256Z,100809.81
2022-10-04T14:24:28.066Z,100803.97
2022-10-04T14:27:11.557Z,100799.13
2022-10-04T14:30:14.939Z,100799.06
2022-10-04T14:33:15.584Z,100793.84
2022-10-04T14:35:57.869Z,100799.88
2022-10-04T14:39:19.170Z,100792.50
2022-10-04T14:42:04.165Z,100788.38
2022-10-04T14:45:00.125Z,100799.88
2022-10-04T14:48:24.439Z,100799.25
2022-10-04T14:51:19.448Z,100792.03
2022-10-04T14:54:17.182Z,100789.94
2022-10-04T14:56:59.020Z,100794.94
2022-10-04T14:59:50.666Z,100801.56
2022-10-04T15:03:07.936Z,100792.28
2022-10-04T15:05:57.843Z,100802.44
2022-10-04T15:09:02.675Z,100792.78
2022-10-04T15:12:36.443Z,100793.16
2022-10-04T15:15:13.504Z,100780.50
2022-10-04T15:18:28.169Z,100777.94
2022-10-04T15:21:10.058Z,100770.91
2022-10-04T15:23:54.433Z,100757.78
2022-10-04T15:26:30.415Z,100761.47
2022-10-04T15:29:23.716Z,100770.88
2022-10-04T15:32:19.935Z,100777.34
2022-10-04T15:35:17.555Z,100769.16
2022-10-04T15:38:32.647Z,100776.53
2022-10-04T15:42:08.054Z,100773.16
2022-10-04T15:45:05.255Z,100764.91
2022-10-04T15:48:00.903Z,100761.25
2022-10-04T15:50:43.126Z,100765.09
2022-10-04T15:53:47.964Z,100759.16
2022-10-04T15:56:35.984Z,100760.63
2022-10-04T16:00:13.855Z,100751.53
2022-10-04T16:03:03.503Z,100756.53
2022-10-04T16:05:59.956Z,100766.72
2022-10-04T16:09:03.511Z,100773.53
2022-10-04T16:11:49.115Z,100770.81
2022-10-04T16:14:24.988Z,100780.03
2022-10-04T16:17:22.483Z,100773.44
2022-10-04T16:20:06.086Z,100769.16
2022-10-04T16:22:35.410Z,100768.25
2022-10-04T16:25:35.632Z,100782.63
2022-10-04T16:28:25.586Z,100782.31
2022-10-04T16:31:20.721Z,100779.75
2022-10-04T16:34:07.160Z,100788.56
2022-10-04T16:37:32.678Z,100783.88
2022-10-04T16:40:26.144Z,100790.09
2022-10-04T16:43:29.833Z,100784.69
2022-10-04T16:46:14.859Z,100773.44
2022-10-04T16:49:20.751Z,100761.59
2022-10-04T16:51:56.471Z,100769.31
2022-10-04T16:54:53.443Z,100762.41
2022-10-04T16:57:23.035Z,100767.41
2022-10-04T16:59:57.319Z,100760.78
2022-10-04T17:02:54.674Z,100761.06
2022-10-04T17:05:50.471Z,100770.63
2022-10-04T17:08:17.478Z,100771.28
2022-10-04T17:11:27.372Z,100783.56
2022-10-04T17:14:33.050Z,100778.31
2022-10-04T17:17:24.163Z,100776.19
2022-10-04T17:20:37.864Z,100778.44
2022-10-04T17:23:23.464Z,100787.09
2022-10-04T17:26:16.391Z,100786.88
2022-10-04T17:29:28.801Z,100782.94
2022-10-04T17:32:28.019Z,100800.47
2022-10-04T17:35:34.965Z,100797.97
2022-10-04T17:38:12.055Z,100794.66
2022-10-04T17:41:13.193Z,100796.00
2022-10-04T17:44:13.367Z,100796.63
2022-10-04T17:47:14.330Z,100801.13
2022-10-04T17:50:30.594Z,100800.03
2022-10-04T17:53:23.655Z,100806.97
2022-10-04T17:55:55.980Z,100805.69
2022-10-04T17:58:31.225Z,100793.66
2022-10-04T18:01:09.983Z,100786.47
2022-10-04T18:03:56.259Z,100785.69
2022-10-04T18:06:48.661Z,100796.19
2022-10-04T18:09:33.525Z,100798.59
2022-10-04T18:12:06.975Z,100795.19
2022-10-04T18:15:02.474Z,100802.09
2022-10-04T18:17:49.927Z,100805.91
2022-10-04T18:20:37.635Z,100811.16
2022-10-04T18:23:28.971Z,100804.81
2022-10-04T18:26:18.417Z,100811.69
2022-10-04T18:28:47.555Z,100808.59
2022-10-04T18:31:36.250Z,100806.31
2022-10-04T18:34:27.992Z,100803.13
2022-10-04T18:37:33.799Z,100809.31
2022-10-04T18:40:26.432Z,100811.19
2022-10-04T18:43:01.790Z,100811.34
2022-10-04T18:45:34.032Z,100805.66
2022-10-04T18:48:14.660Z,100805.88
2022-10-04T18:50:45.264Z,100807.31
2022-10-04T18:53:46.258Z,100800.16
2022-10-04T18:56:13.708Z,100805.06
2022-10-04T18:59:30.471Z,100814.50
2022-10-04T19:02:11.777Z,100809.59
2022-10-04T19:04:46.474Z,100817.53
2022-10-04T19:07:27.748Z,100812.69
2022-10-04T19:10:32.641Z,100821.22
2022-10-04T19:12:59.654Z,100823.97
2022-10-04T19:15:48.245Z,100823.34
2022-10-04T19:18:40.663Z,100828.56
2022-10-04T19:21:49.206Z,100832.94
2022-10-04T19:25:03.622Z,100823.81
2022-10-04T19:27:49.375Z,100833.63
2022-10-04T19:30:40.128Z,100838.22
2022-10-04T19:33:25.043Z,100837.84
2022-10-04T19:36:32.508Z,100852.56
2022-10-04T19:39:25.111Z,100853.91
2022-10-04T19:42:16.323Z,100849.53
2022-10-04T19:45:08.280Z,100852.34
2022-10-04T19:47:58.656Z,100865.38
2022-10-04T19:50:43.034Z,100864.56
2022-10-04T19:53:20.494Z,100863.84
2022-10-04T19:55:57.006Z,100863.00
2022-10-04T19:58:31.899Z,100873.16
2022-10-04T20:00:59.743Z,100863.31
2022-10-04T20:03:26.794Z,100866.31
2022-10-04T20:05:55.016Z,100866.72
2022-10-04T20:08:46.983Z,100868.78
2022-10-04T20:11:48.369Z,100858.22
2022-10-04T20:14:21.402Z,100858.47
2022-10-04T20:16:54.081Z,100854.53
2022-10-04T20:19:30.032Z,100864.81
2022-10-04T20:22:28.629Z,100868.22
2022-10-04T20:24:57.825Z,100875.34
2022-10-04T20:27:31.816Z,100875.38
2022-10-04T20:30:03.990Z,100879.38
2022-10-04T20:32:34.028Z,100878.97
2022-10-04T20:35:05.927Z,100872.34
2022-10-04T20:37:45.142Z,100872.63
2022-10-04T20:40:34.839Z,100875.66
2022-10-04T20:43:14.039Z,100872.53
2022-10-04T20:45:47.961Z,100887.69
2022-10-04T20:48:24.626Z,100903.16
2022-10-04T20:50:52.958Z,100899.16
2022-10-04T20:53:28.602Z,100904.94
2022-10-04T20:56:24.550Z,100905.50
2022-10-04T20:58:54.585Z,100906.72
2022-10-04T21:01:36.359Z,100902.44
2022-10-04T21:04:42.196Z,100901.47
2022-10-04T21:07:12.640Z,100902.06
2022-10-04T21:09:42.640Z,100907.00
2022-10-04T21:12:37.877Z,100904.94
2022-10-04T21:15:16.949Z,100901.81
2022-10-04T21:18:07.095Z,100898.50
2022-10-04T21:20:49.388Z,100905.13
2022-10-04T21:23:17.856Z,100908.13
2022-10-04T21:25:44.831Z,100908.38
2022-10-04T21:28:33.873Z,100904.69
2022-10-04T21:31:02.823Z,100904.34
2022-10-04T21:33:31.488Z,100902.44
2022-10-04T21:35:58.447Z,100897.88
2022-10-04T21:38:25.445Z,100887.50
2022-10-04T21:40:52.464Z,100892.00
2022-10-04T21:43:19.459Z,100886.19
2022-10-04T21:45:46.474Z,100892.69
2022-10-04T21:48:13.645Z,100896.44
2022-10-04T21:50:40.930Z,100898.16
2022-10-04T21:53:08.234Z,100903.03
2022-10-04T21:55:35.329Z,100900.94
2022-10-04T21:58:02.260Z,100894.53
2022-10-04T22:00:29.202Z,100898.94
2022-10-04T22:02:56.102Z,100890.09
2022-10-04T22:05:23.011Z,100890.78
2022-10-04T22:07:49.973Z,100883.00
2022-10-04T22:10:17.383Z,100882.38
2022-10-04T22:12:44.469Z,100884.31
2022-10-04T22:15:11.483Z,100877.38
2022-10-04T22:17:38.498Z,100872.03
2022-10-04T22:20:06.604Z,100873.31
2022-10-04T22:22:37.570Z,100873.41
2022-10-04T22:25:20.018Z,100870.94
2022-10-04T22:27:47.805Z,100869.63
2022-10-04T22:30:34.327Z,100874.78
2022-10-04T22:33:02.051Z,100861.06
2022-10-04T22:35:31.894Z,100860.41
2022-10-04T22:38:00.393Z,100851.47
2022-10-04T22:40:29.489Z,100862.78
2022-10-04T22:42:59.030Z,100858.34
2022-10-04T22:45:30.169Z,100861.06
2022-10-04T22:48:01.371Z,100867.16
2022-10-04T22:50:37.272Z,100869.13
2022-10-04T22:53:17.291Z,100860.50
2022-10-04T22:55:44.253Z,100852.53
2022-10-04T22:58:15.284Z,100843.81
2022-10-04T23:00:44.285Z,100848.19
2022-10-04T23:03:32.045Z,100852.84
2022-10-04T23:06:00.399Z,100845.53
2022-10-04T23:08:28.828Z,100841.31
2022-10-04T23:10:58.688Z,100840.81
2022-10-04T23:13:27.046Z,100837.31
2022-10-04T23:16:00.330Z,100840.97
2022-10-04T23:18:29.985Z,100837.75
2022-10-04T23:21:01.690Z,100837.25
2022-10-04T23:23:30.759Z,100843.41
2022-10-04T23:25:57.674Z,100833.34
2022-10-04T23:28:24.924Z,100832.50
2022-10-04T23:31:12.914Z,100835.97
2022-10-04T23:33:41.602Z,100842.56
2022-10-04T23:36:14.306Z,100832.09
2022-10-04T23:38:48.871Z,100832.31
2022-10-04T23:41:17.891Z,100831.22
2022-10-04T23:43:45.723Z,100833.00
2022-10-04T23:46:17.667Z,100820.63
2022-10-04T23:48:45.063Z,100821.84
2022-10-04T23:51:17.068Z,100835.31
2022-10-04T23:53:46.979Z,100823.50
2022-10-04T23:56:28.072Z,100833.06
2022-10-04T23:58:58.148Z,100834.97
